sensor_id;sensor_type;location;lat;lon;timestamp;P1;durP1;ratioP1;P2;durP2;ratioP2
9188;SDS011;34313;50.780;6.084;2022-10-15T00:00:28;2.93;;;2.60;;
9188;SDS011;34313;50.780;6.084;2022-10-15T00:02:54;3.23;;;2.63;;
9188;SDS011;34313;50.780;6.084;2022-10-15T00:05:20;2.93;;;2.70;;
9188;SDS011;34313;50.780;6.084;2022-10-15T00:07:46;3.20;;;2.67;;
9188;SDS011;34313;50.780;6.084;2022-10-15T00:10:12;3.20;;;2.70;;
9188;SDS011;34313;50.780;6.084;2022-10-15T00:12:38;4.43;;;3.27;;
9188;SDS011;34313;50.780;6.084;2022-10-15T00:15:05;3.10;;;2.70;;
9188;SDS011;34313;50.780;6.084;2022-10-15T00:17:32;5.43;;;3.00;;
9188;SDS011;34313;50.780;6.084;2022-10-15T00:19:58;4.57;;;2.77;;
9188;SDS011;34313;50.780;6.084;2022-10-15T00:22:23;3.83;;;3.40;;
9188;SDS011;34313;50.780;6.084;2022-10-15T00:24:48;5.33;;;3.40;;
9188;SDS011;34313;50.780;6.084;2022-10-15T00:27:14;3.90;;;3.30;;
9188;SDS011;34313;50.780;6.084;2022-10-15T00:29:39;5.73;;;3.57;;
9188;SDS011;34313;50.780;6.084;2022-10-15T00:32:04;4.43;;;4.00;;
9188;SDS011;34313;50.780;6.084;2022-10-15T00:34:30;4.53;;;3.80;;
9188;SDS011;34313;50.780;6.084;2022-10-15T00:36:55;4.23;;;3.83;;
9188;SDS011;34313;50.780;6.084;2022-10-15T00:39:21;6.13;;;3.80;;
9188;SDS011;34313;50.780;6.084;2022-10-15T00:41:46;3.70;;;3.30;;
9188;SDS011;34313;50.780;6.084;2022-10-15T00:46:51;4.07;;;3.33;;
9188;SDS011;34313;50.780;6.084;2022-10-15T00:49:34;5.40;;;4.27;;
9188;SDS011;34313;50.780;6.084;2022-10-15T00:54:46;5.00;;;4.10;;
9188;SDS011;34313;50.780;6.084;2022-10-15T00:57:21;9.90;;;4.67;;
9188;SDS011;34313;50.780;6.084;2022-10-15T00:59:52;4.60;;;3.60;;
9188;SDS011;34313;50.780;6.084;2022-10-15T01:02:21;7.53;;;4.20;;
9188;SDS011;34313;50.780;6.084;2022-10-15T01:04:47;5.07;;;3.80;;
9188;SDS011;34313;50.780;6.084;2022-10-15T01:07:13;5.10;;;4.60;;
9188;SDS011;34313;50.780;6.084;2022-10-15T01:09:39;4.20;;;3.80;;
9188;SDS011;34313;50.780;6.084;2022-10-15T01:15:18;5.97;;;4.57;;
9188;SDS011;34313;50.780;6.084;2022-10-15T01:17:47;4.20;;;3.80;;
9188;SDS011;34313;50.780;6.084;2022-10-15T01:26:06;5.30;;;4.60;;
9188;SDS011;34313;50.780;6.084;2022-10-15T01:31:35;6.40;;;4.90;;
9188;SDS011;34313;50.780;6.084;2022-10-15T01:34:12;7.00;;;5.40;;
9188;SDS011;34313;50.780;6.084;2022-10-15T01:39:31;8.53;;;6.00;;
9188;SDS011;34313;50.780;6.084;2022-10-15T01:42:49;6.97;;;5.60;;
9188;SDS011;34313;50.780;6.084;2022-10-15T01:44:57;9.50;;;5.93;;
9188;SDS011;34313;50.780;6.084;2022-10-15T01:47:31;7.53;;;5.73;;
9188;SDS011;34313;50.780;6.084;2022-10-15T01:50:00;9.60;;;6.57;;
9188;SDS011;34313;50.780;6.084;2022-10-15T01:52:30;7.57;;;5.80;;
9188;SDS011;34313;50.780;6.084;2022-10-15T01:54:58;11.13;;;6.70;;
9188;SDS011;34313;50.780;6.084;2022-10-15T01:57:25;10.40;;;6.00;;
9188;SDS011;34313;50.780;6.084;2022-10-15T01:59:52;7.07;;;6.37;;
9188;SDS011;34313;50.780;6.084;2022-10-15T02:02:18;10.23;;;7.00;;
9188;SDS011;34313;50.780;6.084;2022-10-15T02:04:43;10.93;;;8.00;;
9188;SDS011;34313;50.780;6.084;2022-10-15T02:07:10;11.50;;;7.50;;
9188;SDS011;34313;50.780;6.084;2022-10-15T02:09:49;18.17;;;13.20;;
9188;SDS011;34313;50.780;6.084;2022-10-15T02:18:28;20.17;;;16.80;;
9188;SDS011;34313;50.780;6.084;2022-10-15T02:21:17;16.23;;;14.47;;
9188;SDS011;34313;50.780;6.084;2022-10-15T02:23:51;16.90;;;13.90;;
9188;SDS011;34313;50.780;6.084;2022-10-15T02:26:20;18.00;;;14.33;;
9188;SDS011;34313;50.780;6.084;2022-10-15T02:28:51;16.23;;;12.77;;
9188;SDS011;34313;50.780;6.084;2022-10-15T02:31:21;14.47;;;12.33;;
9188;SDS011;34313;50.780;6.084;2022-10-15T02:33:48;15.70;;;11.80;;
9188;SDS011;34313;50.780;6.084;2022-10-15T02:36:19;20.20;;;15.50;;
9188;SDS011;34313;50.780;6.084;2022-10-15T02:38:45;20.00;;;15.53;;
9188;SDS011;34313;50.780;6.084;2022-10-15T02:41:12;21.30;;;17.50;;
9188;SDS011;34313;50.780;6.084;2022-10-15T02:43:38;28.93;;;19.00;;
9188;SDS011;34313;50.780;6.084;2022-10-15T02:46:04;29.90;;;22.57;;
9188;SDS011;34313;50.780;6.084;2022-10-15T02:48:33;33.87;;;22.17;;
9188;SDS011;34313;50.780;6.084;2022-10-15T02:50:58;34.00;;;23.27;;
9188;SDS011;34313;50.780;6.084;2022-10-15T02:53:23;32.40;;;22.57;;
9188;SDS011;34313;50.780;6.084;2022-10-15T02:55:49;37.43;;;25.23;;
9188;SDS011;34313;50.780;6.084;2022-10-15T02:58:14;38.70;;;24.40;;
9188;SDS011;34313;50.780;6.084;2022-10-15T03:00:40;35.50;;;22.73;;
9188;SDS011;34313;50.780;6.084;2022-10-15T03:03:05;34.57;;;24.20;;
9188;SDS011;34313;50.780;6.084;2022-10-15T03:05:34;31.80;;;22.43;;
9188;SDS011;34313;50.780;6.084;2022-10-15T03:08:02;34.23;;;22.47;;
9188;SDS011;34313;50.780;6.084;2022-10-15T03:10:28;37.97;;;23.33;;
9188;SDS011;34313;50.780;6.084;2022-10-15T03:12:53;32.57;;;23.30;;
9188;SDS011;34313;50.780;6.084;2022-10-15T03:15:18;32.70;;;21.67;;
9188;SDS011;34313;50.780;6.084;2022-10-15T03:17:44;34.77;;;23.57;;
9188;SDS011;34313;50.780;6.084;2022-10-15T03:20:10;34.80;;;22.73;;
9188;SDS011;34313;50.780;6.084;2022-10-15T03:22:38;28.73;;;20.77;;
9188;SDS011;34313;50.780;6.084;2022-10-15T03:25:04;31.70;;;22.43;;
9188;SDS011;34313;50.780;6.084;2022-10-15T03:27:32;29.43;;;21.40;;
9188;SDS011;34313;50.780;6.084;2022-10-15T03:29:57;31.90;;;21.57;;
9188;SDS011;34313;50.780;6.084;2022-10-15T03:32:23;34.83;;;22.60;;
9188;SDS011;34313;50.780;6.084;2022-10-15T03:34:48;31.30;;;22.00;;
9188;SDS011;34313;50.780;6.084;2022-10-15T03:37:16;34.63;;;22.23;;
9188;SDS011;34313;50.780;6.084;2022-10-15T03:39:42;33.30;;;21.27;;
9188;SDS011;34313;50.780;6.084;2022-10-15T03:42:07;32.83;;;23.97;;
9188;SDS011;34313;50.780;6.084;2022-10-15T03:44:32;31.47;;;21.97;;
9188;SDS011;34313;50.780;6.084;2022-10-15T03:46:58;35.77;;;23.60;;
9188;SDS011;34313;50.780;6.084;2022-10-15T03:49:24;32.43;;;22.03;;
9188;SDS011;34313;50.780;6.084;2022-10-15T03:51:49;29.40;;;22.53;;
9188;SDS011;34313;50.780;6.084;2022-10-15T03:54:15;27.10;;;20.47;;
9188;SDS011;34313;50.780;6.084;2022-10-15T03:56:40;28.47;;;19.77;;
9188;SDS011;34313;50.780;6.084;2022-10-15T03:59:05;22.40;;;17.00;;
9188;SDS011;34313;50.780;6.084;2022-10-15T04:01:31;24.57;;;17.70;;
9188;SDS011;34313;50.780;6.084;2022-10-15T04:03:56;22.57;;;17.50;;
9188;SDS011;34313;50.780;6.084;2022-10-15T04:06:21;22.70;;;17.87;;
9188;SDS011;34313;50.780;6.084;2022-10-15T04:08:47;23.57;;;17.20;;
9188;SDS011;34313;50.780;6.084;2022-10-15T04:11:12;24.23;;;16.47;;
9188;SDS011;34313;50.780;6.084;2022-10-15T04:13:37;22.10;;;16.73;;
9188;SDS011;34313;50.780;6.084;2022-10-15T04:16:03;25.07;;;18.73;;
9188;SDS011;34313;50.780;6.084;2022-10-15T04:18:29;27.27;;;19.10;;
9188;SDS011;34313;50.780;6.084;2022-10-15T04:20:58;27.67;;;18.77;;
9188;SDS011;34313;50.780;6.084;2022-10-15T04:23:24;27.17;;;19.40;;
9188;SDS011;34313;50.780;6.084;2022-10-15T04:25:50;30.20;;;19.60;;
9188;SDS011;34313;50.780;6.084;2022-10-15T04:28:15;28.13;;;19.90;;
9188;SDS011;34313;50.780;6.084;2022-10-15T04:30:41;28.20;;;19.90;;
9188;SDS011;34313;50.780;6.084;2022-10-15T04:33:06;30.83;;;22.47;;
9188;SDS011;34313;50.780;6.084;2022-10-15T04:35:32;33.90;;;22.27;;
9188;SDS011;34313;50.780;6.084;2022-10-15T04:37:59;30.80;;;21.77;;
9188;SDS011;34313;50.780;6.084;2022-10-15T04:40:24;37.33;;;24.20;;
9188;SDS011;34313;50.780;6.084;2022-10-15T04:42:50;35.40;;;23.63;;
9188;SDS011;34313;50.780;6.084;2022-10-15T04:45:15;38.03;;;23.40;;
9188;SDS011;34313;50.780;6.084;2022-10-15T04:47:41;35.30;;;23.23;;
9188;SDS011;34313;50.780;6.084;2022-10-15T04:50:06;37.60;;;23.47;;
9188;SDS011;34313;50.780;6.084;2022-10-15T04:52:32;34.73;;;22.00;;
9188;SDS011;34313;50.780;6.084;2022-10-15T04:54:59;34.40;;;22.20;;
9188;SDS011;34313;50.780;6.084;2022-10-15T04:57:24;31.50;;;22.37;;
9188;SDS011;34313;50.780;6.084;2022-10-15T04:59:51;31.00;;;20.43;;
9188;SDS011;34313;50.780;6.084;2022-10-15T05:02:17;32.60;;;21.17;;
9188;SDS011;34313;50.780;6.084;2022-10-15T05:04:42;28.80;;;19.10;;
9188;SDS011;34313;50.780;6.084;2022-10-15T05:07:08;29.77;;;19.47;;
9188;SDS011;34313;50.780;6.084;2022-10-15T05:09:33;28.60;;;19.77;;
9188;SDS011;34313;50.780;6.084;2022-10-15T05:11:59;24.43;;;17.07;;
9188;SDS011;34313;50.780;6.084;2022-10-15T05:14:24;28.63;;;16.50;;
9188;SDS011;34313;50.780;6.084;2022-10-15T05:16:50;27.40;;;18.20;;
9188;SDS011;34313;50.780;6.084;2022-10-15T05:19:16;22.10;;;15.60;;
9188;SDS011;34313;50.780;6.084;2022-10-15T05:21:41;23.17;;;15.57;;
9188;SDS011;34313;50.780;6.084;2022-10-15T05:24:08;19.80;;;14.40;;
9188;SDS011;34313;50.780;6.084;2022-10-15T05:26:33;20.10;;;13.30;;
9188;SDS011;34313;50.780;6.084;2022-10-15T05:28:59;15.70;;;13.13;;
9188;SDS011;34313;50.780;6.084;2022-10-15T05:31:25;18.70;;;11.63;;
9188;SDS011;34313;50.780;6.084;2022-10-15T05:33:53;16.30;;;12.27;;
9188;SDS011;34313;50.780;6.084;2022-10-15T05:36:19;14.73;;;11.10;;
9188;SDS011;34313;50.780;6.084;2022-10-15T05:38:47;15.63;;;11.10;;
9188;SDS011;34313;50.780;6.084;2022-10-15T05:41:17;18.43;;;11.30;;
9188;SDS011;34313;50.780;6.084;2022-10-15T05:43:50;14.87;;;10.17;;
9188;SDS011;34313;50.780;6.084;2022-10-15T05:46:16;16.40;;;11.50;;
9188;SDS011;34313;50.780;6.084;2022-10-15T05:48:42;12.13;;;9.37;;
9188;SDS011;34313;50.780;6.084;2022-10-15T05:51:12;14.67;;;9.50;;
9188;SDS011;34313;50.780;6.084;2022-10-15T05:53:38;12.47;;;8.10;;
9188;SDS011;34313;50.780;6.084;2022-10-15T05:56:04;12.70;;;9.23;;
9188;SDS011;34313;50.780;6.084;2022-10-15T05:58:31;13.60;;;9.00;;
9188;SDS011;34313;50.780;6.084;2022-10-15T06:00:58;11.87;;;8.67;;
9188;SDS011;34313;50.780;6.084;2022-10-15T06:03:25;17.20;;;8.50;;
9188;SDS011;34313;50.780;6.084;2022-10-15T06:05:52;13.87;;;7.50;;
9188;SDS011;34313;50.780;6.084;2022-10-15T06:08:17;12.60;;;8.13;;
9188;SDS011;34313;50.780;6.084;2022-10-15T06:10:43;9.17;;;6.80;;
9188;SDS011;34313;50.780;6.084;2022-10-15T06:13:08;10.57;;;8.10;;
9188;SDS011;34313;50.780;6.084;2022-10-15T06:15:37;11.00;;;6.80;;
9188;SDS011;34313;50.780;6.084;2022-10-15T06:18:04;9.90;;;6.80;;
9188;SDS011;34313;50.780;6.084;2022-10-15T06:20:30;9.97;;;6.77;;
9188;SDS011;34313;50.780;6.084;2022-10-15T06:22:56;11.33;;;6.70;;
9188;SDS011;34313;50.780;6.084;2022-10-15T06:25:22;8.60;;;6.00;;
9188;SDS011;34313;50.780;6.084;2022-10-15T06:27:48;7.73;;;5.90;;
9188;SDS011;34313;50.780;6.084;2022-10-15T06:30:13;6.20;;;5.50;;
9188;SDS011;34313;50.780;6.084;2022-10-15T06:32:39;6.47;;;4.87;;
9188;SDS011;34313;50.780;6.084;2022-10-15T06:35:04;5.90;;;4.70;;
9188;SDS011;34313;50.780;6.084;2022-10-15T06:37:30;6.60;;;4.57;;
9188;SDS011;34313;50.780;6.084;2022-10-15T06:39:55;6.13;;;4.83;;
9188;SDS011;34313;50.780;6.084;2022-10-15T06:42:21;7.97;;;5.20;;
9188;SDS011;34313;50.780;6.084;2022-10-15T06:44:46;5.87;;;3.97;;
9188;SDS011;34313;50.780;6.084;2022-10-15T06:47:12;4.50;;;3.70;;
9188;SDS011;34313;50.780;6.084;2022-10-15T06:49:37;5.83;;;4.27;;
9188;SDS011;34313;50.780;6.084;2022-10-15T06:52:02;6.13;;;4.00;;
9188;SDS011;34313;50.780;6.084;2022-10-15T06:54:28;7.27;;;4.90;;
9188;SDS011;34313;50.780;6.084;2022-10-15T06:56:53;5.93;;;4.20;;
9188;SDS011;34313;50.780;6.084;2022-10-15T06:59:19;4.83;;;3.90;;
9188;SDS011;34313;50.780;6.084;2022-10-15T07:01:45;4.93;;;3.90;;
9188;SDS011;34313;50.780;6.084;2022-10-15T07:04:11;4.03;;;3.37;;
9188;SDS011;34313;50.780;6.084;2022-10-15T07:06:36;2.93;;;2.60;;
9188;SDS011;34313;50.780;6.084;2022-10-15T07:09:02;2.13;;;1.93;;
9188;SDS011;34313;50.780;6.084;2022-10-15T07:11:28;1.87;;;1.77;;
9188;SDS011;34313;50.780;6.084;2022-10-15T07:13:53;2.43;;;1.77;;
9188;SDS011;34313;50.780;6.084;2022-10-15T07:16:19;3.73;;;1.70;;
9188;SDS011;34313;50.780;6.084;2022-10-15T07:18:46;1.67;;;1.50;;
9188;SDS011;34313;50.780;6.084;2022-10-15T07:21:11;2.00;;;1.53;;
9188;SDS011;34313;50.780;6.084;2022-10-15T07:23:37;2.30;;;1.77;;
9188;SDS011;34313;50.780;6.084;2022-10-15T07:26:02;1.30;;;1.20;;
9188;SDS011;34313;50.780;6.084;2022-10-15T07:28:27;1.57;;;1.40;;
9188;SDS011;34313;50.780;6.084;2022-10-15T07:30:53;2.50;;;1.00;;
9188;SDS011;34313;50.780;6.084;2022-10-15T07:33:18;1.00;;;0.90;;
9188;SDS011;34313;50.780;6.084;2022-10-15T07:35:44;0.90;;;0.60;;
9188;SDS011;34313;50.780;6.084;2022-10-15T07:38:09;0.80;;;0.63;;
9188;SDS011;34313;50.780;6.084;2022-10-15T07:40:34;0.50;;;0.50;;
9188;SDS011;34313;50.780;6.084;2022-10-15T07:43:00;0.73;;;0.53;;
9188;SDS011;34313;50.780;6.084;2022-10-15T07:45:26;0.80;;;0.40;;
9188;SDS011;34313;50.780;6.084;2022-10-15T07:47:52;1.93;;;0.70;;
9188;SDS011;34313;50.780;6.084;2022-10-15T07:50:18;2.10;;;0.63;;
9188;SDS011;34313;50.780;6.084;2022-10-15T07:52:44;0.87;;;0.50;;
9188;SDS011;34313;50.780;6.084;2022-10-15T07:55:09;0.50;;;0.50;;
9188;SDS011;34313;50.780;6.084;2022-10-15T07:57:35;0.70;;;0.60;;
9188;SDS011;34313;50.780;6.084;2022-10-15T08:00:00;1.10;;;0.60;;
9188;SDS011;34313;50.780;6.084;2022-10-15T08:02:26;0.60;;;0.60;;
9188;SDS011;34313;50.780;6.084;2022-10-15T08:04:51;1.37;;;0.60;;
9188;SDS011;34313;50.780;6.084;2022-10-15T08:07:16;0.93;;;0.60;;
9188;SDS011;34313;50.780;6.084;2022-10-15T08:09:42;0.50;;;0.50;;
9188;SDS011;34313;50.780;6.084;2022-10-15T08:12:07;0.97;;;0.53;;
9188;SDS011;34313;50.780;6.084;2022-10-15T08:14:33;0.40;;;0.40;;
9188;SDS011;34313;50.780;6.084;2022-10-15T08:17:00;0.70;;;0.50;;
9188;SDS011;34313;50.780;6.084;2022-10-15T08:19:26;1.37;;;0.57;;
9188;SDS011;34313;50.780;6.084;2022-10-15T08:21:52;0.60;;;0.57;;
9188;SDS011;34313;50.780;6.084;2022-10-15T08:24:17;1.47;;;0.50;;
9188;SDS011;34313;50.780;6.084;2022-10-15T08:26:43;1.37;;;0.70;;
9188;SDS011;34313;50.780;6.084;2022-10-15T08:29:09;0.80;;;0.57;;
9188;SDS011;34313;50.780;6.084;2022-10-15T08:31:34;1.43;;;0.67;;
9188;SDS011;34313;50.780;6.084;2022-10-15T08:34:00;0.70;;;0.50;;
9188;SDS011;34313;50.780;6.084;2022-10-15T08:36:26;0.90;;;0.50;;
9188;SDS011;34313;50.780;6.084;2022-10-15T08:38:52;2.23;;;0.50;;
9188;SDS011;34313;50.780;6.084;2022-10-15T08:41:23;0.47;;;0.47;;
9188;SDS011;34313;50.780;6.084;2022-10-15T08:43:55;0.73;;;0.40;;
9188;SDS011;34313;50.780;6.084;2022-10-15T08:46:31;0.60;;;0.40;;
9188;SDS011;34313;50.780;6.084;2022-10-15T08:49:00;0.90;;;0.50;;
9188;SDS011;34313;50.780;6.084;2022-10-15T08:51:49;0.67;;;0.50;;
9188;SDS011;34313;50.780;6.084;2022-10-15T08:54:17;0.70;;;0.50;;
9188;SDS011;34313;50.780;6.084;2022-10-15T08:56:44;1.23;;;0.47;;
9188;SDS011;34313;50.780;6.084;2022-10-15T08:59:16;0.40;;;0.40;;
9188;SDS011;34313;50.780;6.084;2022-10-15T09:02:01;1.00;;;0.50;;
9188;SDS011;34313;50.780;6.084;2022-10-15T09:04:52;0.40;;;0.40;;
9188;SDS011;34313;50.780;6.084;2022-10-15T09:10:17;0.90;;;0.40;;
9188;SDS011;34313;50.780;6.084;2022-10-15T09:15:33;0.40;;;0.30;;
9188;SDS011;34313;50.780;6.084;2022-10-15T09:18:04;0.60;;;0.60;;
9188;SDS011;34313;50.780;6.084;2022-10-15T09:20:33;0.80;;;0.40;;
9188;SDS011;34313;50.780;6.084;2022-10-15T09:23:00;1.83;;;0.60;;
9188;SDS011;34313;50.780;6.084;2022-10-15T09:25:30;0.57;;;0.50;;
9188;SDS011;34313;50.780;6.084;2022-10-15T09:28:05;1.53;;;0.70;;
9188;SDS011;34313;50.780;6.084;2022-10-15T09:30:41;2.10;;;0.73;;
9188;SDS011;34313;50.780;6.084;2022-10-15T09:35:46;1.17;;;0.50;;
9188;SDS011;34313;50.780;6.084;2022-10-15T09:40:54;1.43;;;0.70;;
9188;SDS011;34313;50.780;6.084;2022-10-15T09:43:25;1.40;;;0.50;;
9188;SDS011;34313;50.780;6.084;2022-10-15T09:45:59;1.17;;;0.40;;
9188;SDS011;34313;50.780;6.084;2022-10-15T09:48:24;1.07;;;0.50;;
9188;SDS011;34313;50.780;6.084;2022-10-15T09:51:03;0.40;;;0.40;;
9188;SDS011;34313;50.780;6.084;2022-10-15T09:56:37;0.60;;;0.50;;
9188;SDS011;34313;50.780;6.084;2022-10-15T09:59:10;0.67;;;0.40;;
9188;SDS011;34313;50.780;6.084;2022-10-15T10:01:40;1.00;;;0.40;;
9188;SDS011;34313;50.780;6.084;2022-10-15T10:04:21;0.87;;;0.50;;
9188;SDS011;34313;50.780;6.084;2022-10-15T10:06:52;0.70;;;0.50;;
9188;SDS011;34313;50.780;6.084;2022-10-15T10:09:20;1.27;;;0.40;;
9188;SDS011;34313;50.780;6.084;2022-10-15T10:11:52;1.83;;;0.40;;
9188;SDS011;34313;50.780;6.084;2022-10-15T10:17:30;0.60;;;0.50;;
9188;SDS011;34313;50.780;6.084;2022-10-15T10:25:44;0.60;;;0.50;;
9188;SDS011;34313;50.780;6.084;2022-10-15T10:31:09;0.50;;;0.50;;
9188;SDS011;34313;50.780;6.084;2022-10-15T10:33:34;0.60;;;0.47;;
9188;SDS011;34313;50.780;6.084;2022-10-15T10:36:24;0.50;;;0.50;;
9188;SDS011;34313;50.780;6.084;2022-10-15T10:39:02;1.13;;;0.50;;
9188;SDS011;34313;50.780;6.084;2022-10-15T10:47:27;1.33;;;0.40;;
9188;SDS011;34313;50.780;6.084;2022-10-15T10:49:50;2.03;;;0.40;;
9188;SDS011;34313;50.780;6.084;2022-10-15T10:55:04;0.80;;;0.60;;
9188;SDS011;34313;50.780;6.084;2022-10-15T10:57:55;0.80;;;0.50;;
9188;SDS011;34313;50.780;6.084;2022-10-15T11:03:08;0.60;;;0.60;;
9188;SDS011;34313;50.780;6.084;2022-10-15T11:05:40;0.70;;;0.60;;
9188;SDS011;34313;50.780;6.084;2022-10-15T11:13:43;0.40;;;0.40;;
9188;SDS011;34313;50.780;6.084;2022-10-15T11:18:56;0.90;;;0.50;;
9188;SDS011;34313;50.780;6.084;2022-10-15T11:24:19;1.93;;;0.50;;
9188;SDS011;34313;50.780;6.084;2022-10-15T11:27:09;0.73;;;0.60;;
9188;SDS011;34313;50.780;6.084;2022-10-15T11:39:03;0.40;;;0.40;;
9188;SDS011;34313;50.780;6.084;2022-10-15T11:41:44;0.93;;;0.57;;
9188;SDS011;34313;50.780;6.084;2022-10-15T11:55:49;1.07;;;0.70;;
9188;SDS011;34313;50.780;6.084;2022-10-15T11:58:31;0.53;;;0.50;;
9188;SDS011;34313;50.780;6.084;2022-10-15T12:03:54;0.60;;;0.60;;
9188;SDS011;34313;50.780;6.084;2022-10-15T12:06:27;3.07;;;0.50;;
9188;SDS011;34313;50.780;6.084;2022-10-15T12:08:56;1.13;;;0.70;;
9188;SDS011;34313;50.780;6.084;2022-10-15T12:19:47;1.00;;;0.70;;
9188;SDS011;34313;50.780;6.084;2022-10-15T12:22:42;1.33;;;0.80;;
9188;SDS011;34313;50.780;6.084;2022-10-15T12:27:58;0.80;;;0.80;;
9188;SDS011;34313;50.780;6.084;2022-10-15T12:30:25;0.70;;;0.70;;
9188;SDS011;34313;50.780;6.084;2022-10-15T12:32:51;0.80;;;0.57;;
9188;SDS011;34313;50.780;6.084;2022-10-15T12:35:21;1.60;;;0.60;;
9188;SDS011;34313;50.780;6.084;2022-10-15T12:37:48;0.50;;;0.50;;
9188;SDS011;34313;50.780;6.084;2022-10-15T12:42:59;0.93;;;0.70;;
9188;SDS011;34313;50.780;6.084;2022-10-15T12:50:29;0.87;;;0.70;;
9188;SDS011;34313;50.780;6.084;2022-10-15T12:52:57;1.10;;;0.80;;
9188;SDS011;34313;50.780;6.084;2022-10-15T12:58:05;1.50;;;1.03;;
9188;SDS011;34313;50.780;6.084;2022-10-15T13:00:50;0.90;;;0.60;;
9188;SDS011;34313;50.780;6.084;2022-10-15T13:05:44;3.13;;;2.83;;
9188;SDS011;34313;50.780;6.084;2022-10-15T13:08:31;1.47;;;1.37;;
9188;SDS011;34313;50.780;6.084;2022-10-15T13:10:57;0.80;;;0.80;;
9188;SDS011;34313;50.780;6.084;2022-10-15T13:13:28;0.70;;;0.70;;
9188;SDS011;34313;50.780;6.084;2022-10-15T13:16:00;1.10;;;0.73;;
9188;SDS011;34313;50.780;6.084;2022-10-15T13:18:30;1.13;;;0.87;;
9188;SDS011;34313;50.780;6.084;2022-10-15T13:20:56;1.23;;;0.67;;
9188;SDS011;34313;50.780;6.084;2022-10-15T13:23:26;0.77;;;0.60;;
9188;SDS011;34313;50.780;6.084;2022-10-15T13:26:15;0.60;;;0.60;;
9188;SDS011;34313;50.780;6.084;2022-10-15T13:28:47;0.77;;;0.60;;
9188;SDS011;34313;50.780;6.084;2022-10-15T13:33:53;2.23;;;1.20;;
9188;SDS011;34313;50.780;6.084;2022-10-15T13:36:26;0.60;;;0.60;;
9188;SDS011;34313;50.780;6.084;2022-10-15T13:39:02;0.53;;;0.50;;
9188;SDS011;34313;50.780;6.084;2022-10-15T13:41:33;0.60;;;0.60;;
9188;SDS011;34313;50.780;6.084;2022-10-15T13:44:02;1.60;;;0.80;;
9188;SDS011;34313;50.780;6.084;2022-10-15T13:46:30;1.33;;;1.00;;
9188;SDS011;34313;50.780;6.084;2022-10-15T13:48:57;1.57;;;0.87;;
9188;SDS011;34313;50.780;6.084;2022-10-15T13:51:36;0.77;;;0.70;;
9188;SDS011;34313;50.780;6.084;2022-10-15T13:54:07;0.80;;;0.80;;
9188;SDS011;34313;50.780;6.084;2022-10-15T13:56:34;2.97;;;0.70;;
9188;SDS011;34313;50.780;6.084;2022-10-15T13:59:00;0.90;;;0.90;;
9188;SDS011;34313;50.780;6.084;2022-10-15T14:01:27;1.27;;;0.93;;
9188;SDS011;34313;50.780;6.084;2022-10-15T14:06:22;1.57;;;1.10;;
9188;SDS011;34313;50.780;6.084;2022-10-15T14:08:49;1.03;;;0.93;;
9188;SDS011;34313;50.780;6.084;2022-10-15T14:11:18;0.80;;;0.80;;
9188;SDS011;34313;50.780;6.084;2022-10-15T14:13:45;0.97;;;0.93;;
9188;SDS011;34313;50.780;6.084;2022-10-15T14:16:23;0.70;;;0.70;;
9188;SDS011;34313;50.780;6.084;2022-10-15T14:18:57;1.20;;;0.60;;
9188;SDS011;34313;50.780;6.084;2022-10-15T14:21:33;1.43;;;0.60;;
9188;SDS011;34313;50.780;6.084;2022-10-15T14:26:43;5.33;;;1.03;;
9188;SDS011;34313;50.780;6.084;2022-10-15T14:29:24;1.80;;;1.07;;
9188;SDS011;34313;50.780;6.084;2022-10-15T14:31:52;1.70;;;0.80;;
9188;SDS011;34313;50.780;6.084;2022-10-15T14:34:37;1.87;;;0.80;;
9188;SDS011;34313;50.780;6.084;2022-10-15T14:42:32;1.37;;;0.87;;
9188;SDS011;34313;50.780;6.084;2022-10-15T14:45:09;4.43;;;1.10;;
9188;SDS011;34313;50.780;6.084;2022-10-15T14:47:36;3.90;;;1.23;;
9188;SDS011;34313;50.780;6.084;2022-10-15T14:50:01;5.30;;;1.30;;
9188;SDS011;34313;50.780;6.084;2022-10-15T14:52:29;1.10;;;1.00;;
9188;SDS011;34313;50.780;6.084;2022-10-15T14:55:13;4.40;;;1.50;;
9188;SDS011;34313;50.780;6.084;2022-10-15T14:57:39;5.33;;;1.80;;
9188;SDS011;34313;50.780;6.084;2022-10-15T15:02:55;4.17;;;1.70;;
9188;SDS011;34313;50.780;6.084;2022-10-15T15:05:26;3.80;;;1.23;;
9188;SDS011;34313;50.780;6.084;2022-10-15T15:07:52;2.90;;;2.10;;
9188;SDS011;34313;50.780;6.084;2022-10-15T15:10:19;2.10;;;1.60;;
9188;SDS011;34313;50.780;6.084;2022-10-15T15:12:47;6.80;;;2.40;;
9188;SDS011;34313;50.780;6.084;2022-10-15T15:15:15;2.03;;;1.70;;
9188;SDS011;34313;50.780;6.084;2022-10-15T15:17:43;2.17;;;1.90;;
9188;SDS011;34313;50.780;6.084;2022-10-15T15:20:09;5.77;;;1.80;;
9188;SDS011;34313;50.780;6.084;2022-10-15T15:22:35;4.17;;;2.10;;
9188;SDS011;34313;50.780;6.084;2022-10-15T15:25:47;3.77;;;2.43;;
9188;SDS011;34313;50.780;6.084;2022-10-15T15:27:47;5.30;;;2.37;;
9188;SDS011;34313;50.780;6.084;2022-10-15T15:30:14;2.83;;;2.40;;
9188;SDS011;34313;50.780;6.084;2022-10-15T15:32:44;3.53;;;2.10;;
9188;SDS011;34313;50.780;6.084;2022-10-15T15:35:31;2.37;;;2.17;;
9188;SDS011;34313;50.780;6.084;2022-10-15T15:38:05;2.33;;;2.03;;
9188;SDS011;34313;50.780;6.084;2022-10-15T15:40:32;4.50;;;1.80;;
9188;SDS011;34313;50.780;6.084;2022-10-15T15:42:58;4.93;;;2.00;;
9188;SDS011;34313;50.780;6.084;2022-10-15T15:45:24;2.03;;;1.60;;
9188;SDS011;34313;50.780;6.084;2022-10-15T15:47:51;2.37;;;1.30;;
9188;SDS011;34313;50.780;6.084;2022-10-15T15:50:18;1.57;;;1.13;;
9188;SDS011;34313;50.780;6.084;2022-10-15T15:52:45;3.70;;;2.10;;
9188;SDS011;34313;50.780;6.084;2022-10-15T15:55:11;9.27;;;2.10;;
9188;SDS011;34313;50.780;6.084;2022-10-15T15:57:37;3.27;;;1.17;;
9188;SDS011;34313;50.780;6.084;2022-10-15T16:00:03;2.50;;;1.43;;
9188;SDS011;34313;50.780;6.084;2022-10-15T16:02:30;5.00;;;1.40;;
9188;SDS011;34313;50.780;6.084;2022-10-15T16:04:56;3.67;;;1.60;;
9188;SDS011;34313;50.780;6.084;2022-10-15T16:07:21;5.07;;;1.80;;
9188;SDS011;34313;50.780;6.084;2022-10-15T16:09:46;4.90;;;2.10;;
9188;SDS011;34313;50.780;6.084;2022-10-15T16:12:12;1.80;;;1.50;;
9188;SDS011;34313;50.780;6.084;2022-10-15T16:14:37;5.43;;;1.67;;
9188;SDS011;34313;50.780;6.084;2022-10-15T16:17:03;3.27;;;1.40;;
9188;SDS011;34313;50.780;6.084;2022-10-15T16:19:28;1.67;;;1.03;;
9188;SDS011;34313;50.780;6.084;2022-10-15T16:21:53;7.40;;;1.67;;
9188;SDS011;34313;50.780;6.084;2022-10-15T16:24:19;5.00;;;2.00;;
9188;SDS011;34313;50.780;6.084;2022-10-15T16:26:44;5.73;;;2.80;;
9188;SDS011;34313;50.780;6.084;2022-10-15T16:29:09;3.50;;;2.20;;
9188;SDS011;34313;50.780;6.084;2022-10-15T16:31:35;3.83;;;2.57;;
9188;SDS011;34313;50.780;6.084;2022-10-15T16:34:01;4.53;;;1.80;;
9188;SDS011;34313;50.780;6.084;2022-10-15T16:36:28;3.13;;;2.00;;
9188;SDS011;34313;50.780;6.084;2022-10-15T16:38:53;4.27;;;2.43;;
9188;SDS011;34313;50.780;6.084;2022-10-15T16:41:19;5.33;;;2.53;;
9188;SDS011;34313;50.780;6.084;2022-10-15T16:43:44;6.50;;;2.63;;
9188;SDS011;34313;50.780;6.084;2022-10-15T16:46:14;3.67;;;2.50;;
9188;SDS011;34313;50.780;6.084;2022-10-15T16:48:41;3.70;;;3.27;;
9188;SDS011;34313;50.780;6.084;2022-10-15T16:51:08;6.10;;;2.47;;
9188;SDS011;34313;50.780;6.084;2022-10-15T16:53:36;2.93;;;2.73;;
9188;SDS011;34313;50.780;6.084;2022-10-15T16:56:07;6.73;;;3.27;;
9188;SDS011;34313;50.780;6.084;2022-10-15T16:58:34;8.13;;;3.97;;
9188;SDS011;34313;50.780;6.084;2022-10-15T17:01:00;5.93;;;4.87;;
9188;SDS011;34313;50.780;6.084;2022-10-15T17:03:27;6.33;;;3.40;;
9188;SDS011;34313;50.780;6.084;2022-10-15T17:05:59;6.20;;;3.73;;
9188;SDS011;34313;50.780;6.084;2022-10-15T17:08:27;10.37;;;4.60;;
9188;SDS011;34313;50.780;6.084;2022-10-15T17:10:59;6.83;;;4.20;;
9188;SDS011;34313;50.780;6.084;2022-10-15T17:13:24;7.80;;;4.00;;
9188;SDS011;34313;50.780;6.084;2022-10-15T17:15:49;5.17;;;3.90;;
9188;SDS011;34313;50.780;6.084;2022-10-15T17:18:16;4.77;;;3.63;;